sensor_id;sensor_type;location;lat;lon;timestamp;P1;durP1;ratioP1;P2;durP2;ratioP2
73487;SDS011;61721;42.206;25.320;2023-04-12T00:01:52;8.75;;;5.10;;
73487;SDS011;61721;42.206;25.320;2023-04-12T00:04:19;8.82;;;4.95;;
73487;SDS011;61721;42.206;25.320;2023-04-12T00:06:46;7.53;;;4.47;;
73487;SDS011;61721;42.206;25.320;2023-04-12T00:09:14;8.23;;;5.10;;
73487;SDS011;61721;42.206;25.320;2023-04-12T00:11:41;7.18;;;4.78;;
73487;SDS011;61721;42.206;25.320;2023-04-12T00:14:09;9.80;;;5.30;;
73487;SDS011;61721;42.206;25.320;2023-04-12T00:16:37;9.02;;;5.05;;
73487;SDS011;61721;42.206;25.320;2023-04-12T00:19:05;10.60;;;5.35;;
73487;SDS011;61721;42.206;25.320;2023-04-12T00:21:33;9.90;;;4.82;;
73487;SDS011;61721;42.206;25.320;2023-04-12T00:24:00;9.10;;;4.72;;
73487;SDS011;61721;42.206;25.320;2023-04-12T00:26:27;10.35;;;4.80;;
73487;SDS011;61721;42.206;25.320;2023-04-12T00:28:54;8.55;;;4.97;;
73487;SDS011;61721;42.206;25.320;2023-04-12T00:31:23;8.32;;;4.85;;
73487;SDS011;61721;42.206;25.320;2023-04-12T00:33:50;9.05;;;4.68;;
73487;SDS011;61721;42.206;25.320;2023-04-12T00:36:17;9.57;;;5.57;;
73487;SDS011;61721;42.206;25.320;2023-04-12T00:38:45;7.57;;;4.70;;
73487;SDS011;61721;42.206;25.320;2023-04-12T00:41:12;8.52;;;4.70;;
73487;SDS011;61721;42.206;25.320;2023-04-12T00:43:39;8.45;;;4.95;;
73487;SDS011;61721;42.206;25.320;2023-04-12T00:46:07;9.88;;;5.13;;
73487;SDS011;61721;42.206;25.320;2023-04-12T00:48:37;9.02;;;4.68;;
73487;SDS011;61721;42.206;25.320;2023-04-12T00:51:05;7.20;;;4.80;;
73487;SDS011;61721;42.206;25.320;2023-04-12T00:53:33;7.75;;;4.40;;
73487;SDS011;61721;42.206;25.320;2023-04-12T00:56:00;7.20;;;4.25;;
73487;SDS011;61721;42.206;25.320;2023-04-12T00:58:29;8.60;;;4.90;;
73487;SDS011;61721;42.206;25.320;2023-04-12T01:00:57;9.05;;;4.70;;
73487;SDS011;61721;42.206;25.320;2023-04-12T01:03:24;7.93;;;4.50;;
73487;SDS011;61721;42.206;25.320;2023-04-12T01:05:58;8.45;;;4.50;;
73487;SDS011;61721;42.206;25.320;2023-04-12T01:11:41;6.75;;;4.45;;
73487;SDS011;61721;42.206;25.320;2023-04-12T01:14:14;8.52;;;4.53;;
73487;SDS011;61721;42.206;25.320;2023-04-12T01:16:49;7.43;;;4.43;;
73487;SDS011;61721;42.206;25.320;2023-04-12T01:19:32;7.63;;;4.45;;
73487;SDS011;61721;42.206;25.320;2023-04-12T01:22:23;8.35;;;4.20;;
73487;SDS011;61721;42.206;25.320;2023-04-12T01:25:03;7.20;;;4.47;;
73487;SDS011;61721;42.206;25.320;2023-04-12T01:27:52;6.72;;;4.30;;
73487;SDS011;61721;42.206;25.320;2023-04-12T01:30:22;7.10;;;4.05;;
73487;SDS011;61721;42.206;25.320;2023-04-12T01:32:54;7.15;;;4.63;;
73487;SDS011;61721;42.206;25.320;2023-04-12T01:35:24;7.50;;;4.20;;
73487;SDS011;61721;42.206;25.320;2023-04-12T01:37:55;7.38;;;4.22;;
73487;SDS011;61721;42.206;25.320;2023-04-12T01:40:25;7.85;;;3.83;;
73487;SDS011;61721;42.206;25.320;2023-04-12T01:43:04;7.03;;;4.30;;
73487;SDS011;61721;42.206;25.320;2023-04-12T01:45:32;7.15;;;4.65;;
73487;SDS011;61721;42.206;25.320;2023-04-12T01:48:00;7.25;;;4.10;;
73487;SDS011;61721;42.206;25.320;2023-04-12T01:50:31;6.65;;;4.05;;
73487;SDS011;61721;42.206;25.320;2023-04-12T01:53:13;8.50;;;4.47;;
73487;SDS011;61721;42.206;25.320;2023-04-12T01:55:44;7.00;;;4.20;;
73487;SDS011;61721;42.206;25.320;2023-04-12T01:58:16;7.45;;;4.13;;
73487;SDS011;61721;42.206;25.320;2023-04-12T02:00:47;7.82;;;4.30;;
73487;SDS011;61721;42.206;25.320;2023-04-12T02:03:16;8.73;;;4.22;;
73487;SDS011;61721;42.206;25.320;2023-04-12T02:05:45;8.07;;;4.50;;
73487;SDS011;61721;42.206;25.320;2023-04-12T02:08:13;8.15;;;4.47;;
73487;SDS011;61721;42.206;25.320;2023-04-12T02:10:41;7.30;;;4.50;;
73487;SDS011;61721;42.206;25.320;2023-04-12T02:13:08;8.30;;;4.22;;
73487;SDS011;61721;42.206;25.320;2023-04-12T02:15:36;6.43;;;4.05;;
73487;SDS011;61721;42.206;25.320;2023-04-12T02:18:04;7.47;;;3.78;;
73487;SDS011;61721;42.206;25.320;2023-04-12T02:20:32;10.45;;;4.90;;
73487;SDS011;61721;42.206;25.320;2023-04-12T02:22:59;8.05;;;4.45;;
73487;SDS011;61721;42.206;25.320;2023-04-12T02:25:27;7.72;;;4.40;;
73487;SDS011;61721;42.206;25.320;2023-04-12T02:27:54;7.82;;;4.10;;
73487;SDS011;61721;42.206;25.320;2023-04-12T02:30:41;8.13;;;4.43;;
73487;SDS011;61721;42.206;25.320;2023-04-12T02:33:08;6.10;;;3.85;;
73487;SDS011;61721;42.206;25.320;2023-04-12T02:35:35;7.25;;;4.30;;
73487;SDS011;61721;42.206;25.320;2023-04-12T02:38:06;8.30;;;4.43;;
73487;SDS011;61721;42.206;25.320;2023-04-12T02:40:37;7.07;;;4.03;;
73487;SDS011;61721;42.206;25.320;2023-04-12T02:43:06;9.05;;;4.35;;
73487;SDS011;61721;42.206;25.320;2023-04-12T02:45:33;7.20;;;4.43;;
73487;SDS011;61721;42.206;25.320;2023-04-12T02:48:02;6.82;;;4.07;;
73487;SDS011;61721;42.206;25.320;2023-04-12T02:50:29;7.63;;;4.40;;
73487;SDS011;61721;42.206;25.320;2023-04-12T02:52:57;6.53;;;4.15;;
73487;SDS011;61721;42.206;25.320;2023-04-12T02:55:24;7.70;;;4.20;;
73487;SDS011;61721;42.206;25.320;2023-04-12T02:57:51;7.28;;;4.80;;
73487;SDS011;61721;42.206;25.320;2023-04-12T03:00:19;8.13;;;4.53;;
73487;SDS011;61721;42.206;25.320;2023-04-12T03:02:46;6.10;;;4.18;;
73487;SDS011;61721;42.206;25.320;2023-04-12T03:05:17;7.30;;;3.95;;
73487;SDS011;61721;42.206;25.320;2023-04-12T03:07:44;7.88;;;4.47;;
73487;SDS011;61721;42.206;25.320;2023-04-12T03:10:12;7.30;;;4.00;;
73487;SDS011;61721;42.206;25.320;2023-04-12T03:12:41;6.03;;;3.83;;
73487;SDS011;61721;42.206;25.320;2023-04-12T03:15:08;6.65;;;4.13;;
73487;SDS011;61721;42.206;25.320;2023-04-12T03:17:36;6.63;;;3.90;;
73487;SDS011;61721;42.206;25.320;2023-04-12T03:20:03;7.00;;;4.30;;
73487;SDS011;61721;42.206;25.320;2023-04-12T03:22:37;8.15;;;4.45;;
73487;SDS011;61721;42.206;25.320;2023-04-12T03:25:05;6.93;;;4.15;;
73487;SDS011;61721;42.206;25.320;2023-04-12T03:27:34;6.45;;;3.80;;
73487;SDS011;61721;42.206;25.320;2023-04-12T03:30:02;8.23;;;4.22;;
73487;SDS011;61721;42.206;25.320;2023-04-12T03:32:30;7.45;;;4.03;;
73487;SDS011;61721;42.206;25.320;2023-04-12T03:34:59;7.22;;;4.07;;
73487;SDS011;61721;42.206;25.320;2023-04-12T03:37:27;8.18;;;3.50;;
73487;SDS011;61721;42.206;25.320;2023-04-12T03:39:56;10.00;;;4.70;;
73487;SDS011;61721;42.206;25.320;2023-04-12T03:42:25;6.97;;;3.92;;
73487;SDS011;61721;42.206;25.320;2023-04-12T03:44:54;6.55;;;3.90;;
73487;SDS011;61721;42.206;25.320;2023-04-12T03:47:21;5.95;;;3.60;;
73487;SDS011;61721;42.206;25.320;2023-04-12T03:49:48;8.05;;;3.92;;
73487;SDS011;61721;42.206;25.320;2023-04-12T03:52:27;7.80;;;4.57;;
73487;SDS011;61721;42.206;25.320;2023-04-12T03:54:56;7.60;;;4.03;;
73487;SDS011;61721;42.206;25.320;2023-04-12T03:57:23;6.75;;;4.22;;
73487;SDS011;61721;42.206;25.320;2023-04-12T03:59:51;8.95;;;4.93;;
73487;SDS011;61721;42.206;25.320;2023-04-12T04:02:18;6.97;;;4.03;;
73487;SDS011;61721;42.206;25.320;2023-04-12T04:04:45;7.15;;;4.10;;
73487;SDS011;61721;42.206;25.320;2023-04-12T04:07:12;6.32;;;4.15;;
73487;SDS011;61721;42.206;25.320;2023-04-12T04:09:40;6.65;;;3.80;;
73487;SDS011;61721;42.206;25.320;2023-04-12T04:12:08;7.60;;;4.78;;
73487;SDS011;61721;42.206;25.320;2023-04-12T04:14:36;15.13;;;6.95;;
73487;SDS011;61721;42.206;25.320;2023-04-12T04:17:03;12.27;;;6.47;;
73487;SDS011;61721;42.206;25.320;2023-04-12T04:19:30;7.32;;;4.43;;
73487;SDS011;61721;42.206;25.320;2023-04-12T04:21:57;11.27;;;5.30;;
73487;SDS011;61721;42.206;25.320;2023-04-12T04:24:26;15.25;;;5.13;;
73487;SDS011;61721;42.206;25.320;2023-04-12T04:26:55;14.80;;;5.43;;
73487;SDS011;61721;42.206;25.320;2023-04-12T04:29:26;14.20;;;5.03;;
73487;SDS011;61721;42.206;25.320;2023-04-12T04:31:54;10.70;;;5.65;;
73487;SDS011;61721;42.206;25.320;2023-04-12T04:34:24;13.43;;;5.53;;
73487;SDS011;61721;42.206;25.320;2023-04-12T04:36:52;9.95;;;5.72;;
73487;SDS011;61721;42.206;25.320;2023-04-12T04:39:19;12.48;;;6.97;;
73487;SDS011;61721;42.206;25.320;2023-04-12T04:41:47;10.32;;;5.35;;
73487;SDS011;61721;42.206;25.320;2023-04-12T04:44:18;10.50;;;5.88;;
73487;SDS011;61721;42.206;25.320;2023-04-12T04:46:47;11.45;;;5.60;;
73487;SDS011;61721;42.206;25.320;2023-04-12T04:49:15;8.20;;;4.78;;
73487;SDS011;61721;42.206;25.320;2023-04-12T04:51:43;12.93;;;4.95;;
73487;SDS011;61721;42.206;25.320;2023-04-12T04:54:10;12.63;;;6.63;;
73487;SDS011;61721;42.206;25.320;2023-04-12T04:56:38;9.27;;;6.07;;
73487;SDS011;61721;42.206;25.320;2023-04-12T04:59:05;8.85;;;5.68;;
73487;SDS011;61721;42.206;25.320;2023-04-12T05:01:32;8.90;;;5.18;;
73487;SDS011;61721;42.206;25.320;2023-04-12T05:04:02;23.23;;;8.95;;
73487;SDS011;61721;42.206;25.320;2023-04-12T05:06:29;16.40;;;8.57;;
73487;SDS011;61721;42.206;25.320;2023-04-12T05:08:57;17.27;;;8.65;;
73487;SDS011;61721;42.206;25.320;2023-04-12T05:11:25;13.98;;;9.00;;
73487;SDS011;61721;42.206;25.320;2023-04-12T05:16:23;7.55;;;4.57;;
73487;SDS011;61721;42.206;25.320;2023-04-12T05:18:50;10.50;;;5.05;;
73487;SDS011;61721;42.206;25.320;2023-04-12T05:21:18;9.38;;;5.30;;
73487;SDS011;61721;42.206;25.320;2023-04-12T05:23:45;8.68;;;5.28;;
73487;SDS011;61721;42.206;25.320;2023-04-12T05:26:13;8.25;;;5.00;;
73487;SDS011;61721;42.206;25.320;2023-04-12T05:28:40;8.70;;;5.68;;
73487;SDS011;61721;42.206;25.320;2023-04-12T05:31:07;8.45;;;5.13;;
73487;SDS011;61721;42.206;25.320;2023-04-12T05:33:34;9.30;;;5.10;;
73487;SDS011;61721;42.206;25.320;2023-04-12T05:36:02;7.80;;;5.18;;
73487;SDS011;61721;42.206;25.320;2023-04-12T05:38:31;8.35;;;5.82;;
73487;SDS011;61721;42.206;25.320;2023-04-12T05:40:58;11.90;;;6.95;;
73487;SDS011;61721;42.206;25.320;2023-04-12T05:43:28;10.32;;;5.70;;
73487;SDS011;61721;42.206;25.320;2023-04-12T05:45:55;8.77;;;5.53;;
73487;SDS011;61721;42.206;25.320;2023-04-12T05:48:22;10.43;;;5.65;;
73487;SDS011;61721;42.206;25.320;2023-04-12T05:50:50;9.23;;;5.70;;
73487;SDS011;61721;42.206;25.320;2023-04-12T05:53:17;10.13;;;5.72;;
73487;SDS011;61721;42.206;25.320;2023-04-12T05:55:46;11.30;;;6.70;;
73487;SDS011;61721;42.206;25.320;2023-04-12T05:58:13;9.82;;;6.32;;
73487;SDS011;61721;42.206;25.320;2023-04-12T06:00:41;12.63;;;7.28;;
73487;SDS011;61721;42.206;25.320;2023-04-12T06:03:09;11.73;;;7.53;;
73487;SDS011;61721;42.206;25.320;2023-04-12T06:05:37;11.90;;;7.45;;
73487;SDS011;61721;42.206;25.320;2023-04-12T06:08:04;14.65;;;8.38;;
73487;SDS011;61721;42.206;25.320;2023-04-12T06:10:31;13.98;;;8.20;;
73487;SDS011;61721;42.206;25.320;2023-04-12T06:13:00;13.63;;;7.20;;
73487;SDS011;61721;42.206;25.320;2023-04-12T06:15:27;10.98;;;6.53;;
73487;SDS011;61721;42.206;25.320;2023-04-12T06:17:56;14.82;;;8.02;;
73487;SDS011;61721;42.206;25.320;2023-04-12T06:20:23;9.43;;;6.43;;
73487;SDS011;61721;42.206;25.320;2023-04-12T06:22:50;10.90;;;6.72;;
73487;SDS011;61721;42.206;25.320;2023-04-12T06:25:20;11.27;;;6.43;;
73487;SDS011;61721;42.206;25.320;2023-04-12T06:27:48;13.00;;;7.28;;
73487;SDS011;61721;42.206;25.320;2023-04-12T06:30:17;14.40;;;6.97;;
73487;SDS011;61721;42.206;25.320;2023-04-12T06:32:44;14.82;;;8.35;;
73487;SDS011;61721;42.206;25.320;2023-04-12T06:35:11;15.73;;;7.85;;
73487;SDS011;61721;42.206;25.320;2023-04-12T06:37:38;14.85;;;7.25;;
73487;SDS011;61721;42.206;25.320;2023-04-12T06:40:07;12.57;;;6.80;;
73487;SDS011;61721;42.206;25.320;2023-04-12T06:42:37;10.52;;;6.50;;
73487;SDS011;61721;42.206;25.320;2023-04-12T06:45:05;12.60;;;7.40;;
73487;SDS011;61721;42.206;25.320;2023-04-12T06:47:34;12.57;;;6.85;;
73487;SDS011;61721;42.206;25.320;2023-04-12T06:50:01;12.65;;;7.40;;
73487;SDS011;61721;42.206;25.320;2023-04-12T06:52:31;14.00;;;7.05;;
73487;SDS011;61721;42.206;25.320;2023-04-12T06:54:58;12.77;;;6.35;;
73487;SDS011;61721;42.206;25.320;2023-04-12T06:57:25;11.23;;;6.97;;
73487;SDS011;61721;42.206;25.320;2023-04-12T06:59:52;12.15;;;7.50;;
73487;SDS011;61721;42.206;25.320;2023-04-12T07:02:19;11.35;;;7.05;;
73487;SDS011;61721;42.206;25.320;2023-04-12T07:04:48;22.63;;;10.48;;
73487;SDS011;61721;42.206;25.320;2023-04-12T07:07:17;12.30;;;7.00;;
73487;SDS011;61721;42.206;25.320;2023-04-12T07:09:45;12.60;;;7.65;;
73487;SDS011;61721;42.206;25.320;2023-04-12T07:12:12;12.45;;;7.18;;
73487;SDS011;61721;42.206;25.320;2023-04-12T07:14:40;12.63;;;5.60;;
73487;SDS011;61721;42.206;25.320;2023-04-12T07:17:08;8.88;;;5.47;;
73487;SDS011;61721;42.206;25.320;2023-04-12T07:19:35;9.63;;;5.68;;
73487;SDS011;61721;42.206;25.320;2023-04-12T07:22:05;10.23;;;6.22;;
73487;SDS011;61721;42.206;25.320;2023-04-12T07:24:32;9.57;;;5.00;;
73487;SDS011;61721;42.206;25.320;2023-04-12T07:26:59;10.73;;;5.60;;
73487;SDS011;61721;42.206;25.320;2023-04-12T07:29:26;21.67;;;13.05;;
73487;SDS011;61721;42.206;25.320;2023-04-12T07:31:53;8.23;;;5.30;;
73487;SDS011;61721;42.206;25.320;2023-04-12T07:34:20;14.32;;;6.75;;
73487;SDS011;61721;42.206;25.320;2023-04-12T07:36:48;14.90;;;5.72;;
73487;SDS011;61721;42.206;25.320;2023-04-12T07:39:16;10.57;;;5.80;;
73487;SDS011;61721;42.206;25.320;2023-04-12T07:41:43;6.50;;;3.20;;
73487;SDS011;61721;42.206;25.320;2023-04-12T07:44:12;4.93;;;3.20;;
73487;SDS011;61721;42.206;25.320;2023-04-12T07:46:39;4.95;;;3.10;;
73487;SDS011;61721;42.206;25.320;2023-04-12T07:49:07;5.47;;;2.70;;
73487;SDS011;61721;42.206;25.320;2023-04-12T07:51:34;5.38;;;2.80;;
73487;SDS011;61721;42.206;25.320;2023-04-12T07:54:01;3.78;;;1.60;;
73487;SDS011;61721;42.206;25.320;2023-04-12T07:56:32;4.18;;;2.15;;
73487;SDS011;61721;42.206;25.320;2023-04-12T07:58:59;3.38;;;1.60;;
73487;SDS011;61721;42.206;25.320;2023-04-12T08:01:26;5.72;;;1.48;;
73487;SDS011;61721;42.206;25.320;2023-04-12T08:03:54;3.00;;;1.40;;
73487;SDS011;61721;42.206;25.320;2023-04-12T08:06:21;4.45;;;1.50;;
73487;SDS011;61721;42.206;25.320;2023-04-12T08:08:48;3.60;;;1.40;;
73487;SDS011;61721;42.206;25.320;2023-04-12T08:11:16;9.45;;;4.15;;
73487;SDS011;61721;42.206;25.320;2023-04-12T08:13:45;7.43;;;4.15;;
73487;SDS011;61721;42.206;25.320;2023-04-12T08:16:12;9.98;;;4.18;;
73487;SDS011;61721;42.206;25.320;2023-04-12T08:18:39;6.75;;;2.38;;
73487;SDS011;61721;42.206;25.320;2023-04-12T08:21:06;10.10;;;4.55;;
73487;SDS011;61721;42.206;25.320;2023-04-12T08:23:33;9.20;;;4.28;;
73487;SDS011;61721;42.206;25.320;2023-04-12T08:26:00;7.38;;;3.13;;
73487;SDS011;61721;42.206;25.320;2023-04-12T08:28:28;6.28;;;2.22;;
73487;SDS011;61721;42.206;25.320;2023-04-12T08:30:57;8.18;;;2.78;;
73487;SDS011;61721;42.206;25.320;2023-04-12T08:33:24;4.65;;;2.45;;
73487;SDS011;61721;42.206;25.320;2023-04-12T08:35:52;4.43;;;2.38;;
73487;SDS011;61721;42.206;25.320;2023-04-12T08:38:20;4.50;;;2.03;;
73487;SDS011;61721;42.206;25.320;2023-04-12T08:40:47;6.68;;;1.90;;
73487;SDS011;61721;42.206;25.320;2023-04-12T08:43:14;4.82;;;2.00;;
73487;SDS011;61721;42.206;25.320;2023-04-12T08:45:44;4.47;;;1.77;;
73487;SDS011;61721;42.206;25.320;2023-04-12T08:48:13;5.60;;;2.38;;
73487;SDS011;61721;42.206;25.320;2023-04-12T08:50:44;8.35;;;2.67;;
73487;SDS011;61721;42.206;25.320;2023-04-12T08:53:12;6.50;;;2.33;;
73487;SDS011;61721;42.206;25.320;2023-04-12T08:55:42;4.35;;;1.58;;
73487;SDS011;61721;42.206;25.320;2023-04-12T08:58:09;4.38;;;2.00;;
73487;SDS011;61721;42.206;25.320;2023-04-12T09:00:39;6.55;;;1.42;;
73487;SDS011;61721;42.206;25.320;2023-04-12T09:03:07;3.85;;;1.20;;
73487;SDS011;61721;42.206;25.320;2023-04-12T09:05:37;3.60;;;1.60;;
73487;SDS011;61721;42.206;25.320;2023-04-12T09:08:04;3.03;;;1.08;;
73487;SDS011;61721;42.206;25.320;2023-04-12T09:10:33;4.15;;;1.58;;
73487;SDS011;61721;42.206;25.320;2023-04-12T09:13:01;5.07;;;2.28;;
73487;SDS011;61721;42.206;25.320;2023-04-12T09:15:29;4.97;;;1.60;;
73487;SDS011;61721;42.206;25.320;2023-04-12T09:18:06;5.90;;;1.73;;
73487;SDS011;61721;42.206;25.320;2023-04-12T09:20:33;3.25;;;1.50;;
73487;SDS011;61721;42.206;25.320;2023-04-12T09:23:11;3.70;;;0.93;;
73487;SDS011;61721;42.206;25.320;2023-04-12T09:25:42;4.25;;;0.90;;
73487;SDS011;61721;42.206;25.320;2023-04-12T09:28:19;3.45;;;1.00;;
73487;SDS011;61721;42.206;25.320;2023-04-12T09:30:47;2.45;;;1.00;;
73487;SDS011;61721;42.206;25.320;2023-04-12T09:33:17;2.78;;;0.98;;
73487;SDS011;61721;42.206;25.320;2023-04-12T09:35:45;3.53;;;1.33;;
73487;SDS011;61721;42.206;25.320;2023-04-12T09:38:14;3.25;;;1.10;;
73487;SDS011;61721;42.206;25.320;2023-04-12T09:40:41;2.65;;;1.10;;
73487;SDS011;61721;42.206;25.320;2023-04-12T09:43:08;4.50;;;0.90;;
73487;SDS011;61721;42.206;25.320;2023-04-12T09:45:36;5.72;;;1.10;;
73487;SDS011;61721;42.206;25.320;2023-04-12T09:48:05;1.70;;;0.70;;
73487;SDS011;61721;42.206;25.320;2023-04-12T09:50:33;1.88;;;0.73;;
73487;SDS011;61721;42.206;25.320;2023-04-12T09:53:02;7.15;;;1.33;;
73487;SDS011;61721;42.206;25.320;2023-04-12T09:55:31;6.03;;;1.80;;
73487;SDS011;61721;42.206;25.320;2023-04-12T09:58:00;3.63;;;1.35;;
73487;SDS011;61721;42.206;25.320;2023-04-12T10:00:31;3.03;;;1.30;;
73487;SDS011;61721;42.206;25.320;2023-04-12T10:03:01;10.57;;;4.72;;
73487;SDS011;61721;42.206;25.320;2023-04-12T10:05:29;2.15;;;0.63;;
73487;SDS011;61721;42.206;25.320;2023-04-12T10:07:56;7.25;;;3.40;;
73487;SDS011;61721;42.206;25.320;2023-04-12T10:10:23;6.03;;;2.33;;
73487;SDS011;61721;42.206;25.320;2023-04-12T10:12:52;3.47;;;1.00;;
73487;SDS011;61721;42.206;25.320;2023-04-12T10:15:20;5.40;;;2.30;;
73487;SDS011;61721;42.206;25.320;2023-04-12T10:17:48;7.35;;;3.22;;
73487;SDS011;61721;42.206;25.320;2023-04-12T10:20:17;4.95;;;2.45;;
73487;SDS011;61721;42.206;25.320;2023-04-12T10:22:45;6.70;;;1.92;;
73487;SDS011;61721;42.206;25.320;2023-04-12T10:25:14;3.00;;;1.33;;
73487;SDS011;61721;42.206;25.320;2023-04-12T10:27:43;3.35;;;1.00;;
73487;SDS011;61721;42.206;25.320;2023-04-12T10:30:22;6.32;;;1.63;;
73487;SDS011;61721;42.206;25.320;2023-04-12T10:35:48;6.18;;;1.75;;
73487;SDS011;61721;42.206;25.320;2023-04-12T10:38:17;5.57;;;2.80;;
73487;SDS011;61721;42.206;25.320;2023-04-12T10:43:40;3.70;;;1.80;;
73487;SDS011;61721;42.206;25.320;2023-04-12T10:49:10;4.18;;;1.58;;
73487;SDS011;61721;42.206;25.320;2023-04-12T10:57:00;3.63;;;1.50;;
73487;SDS011;61721;42.206;25.320;2023-04-12T11:02:21;6.28;;;1.80;;
73487;SDS011;61721;42.206;25.320;2023-04-12T11:05:05;3.70;;;1.35;;
73487;SDS011;61721;42.206;25.320;2023-04-12T11:07:37;3.63;;;1.60;;
73487;SDS011;61721;42.206;25.320;2023-04-12T11:10:11;3.65;;;1.60;;
73487;SDS011;61721;42.206;25.320;2023-04-12T11:12:40;3.83;;;1.25;;
73487;SDS011;61721;42.206;25.320;2023-04-12T11:15:10;4.18;;;1.33;;
73487;SDS011;61721;42.206;25.320;2023-04-12T11:17:39;3.25;;;1.30;;
73487;SDS011;61721;42.206;25.320;2023-04-12T11:20:10;4.88;;;1.45;;
73487;SDS011;61721;42.206;25.320;2023-04-12T11:22:38;3.47;;;1.40;;
73487;SDS011;61721;42.206;25.320;2023-04-12T11:25:06;4.75;;;2.17;;
73487;SDS011;61721;42.206;25.320;2023-04-12T11:27:33;4.78;;;1.90;;
73487;SDS011;61721;42.206;25.320;2023-04-12T11:30:03;2.45;;;0.90;;
73487;SDS011;61721;42.206;25.320;2023-04-12T11:32:32;4.82;;;1.95;;
73487;SDS011;61721;42.206;25.320;2023-04-12T11:34:59;4.10;;;1.83;;
73487;SDS011;61721;42.206;25.320;2023-04-12T11:37:28;3.88;;;1.13;;
73487;SDS011;61721;42.206;25.320;2023-04-12T11:39:56;4.50;;;1.65;;
73487;SDS011;61721;42.206;25.320;2023-04-12T11:42:24;2.83;;;1.00;;
73487;SDS011;61721;42.206;25.320;2023-04-12T11:47:22;3.67;;;1.33;;
73487;SDS011;61721;42.206;25.320;2023-04-12T11:49:50;6.18;;;1.48;;
73487;SDS011;61721;42.206;25.320;2023-04-12T11:52:20;4.35;;;1.70;;
73487;SDS011;61721;42.206;25.320;2023-04-12T11:54:54;2.25;;;0.93;;
73487;SDS011;61721;42.206;25.320;2023-04-12T11:59:51;4.43;;;1.70;;
73487;SDS011;61721;42.206;25.320;2023-04-12T12:02:18;9.18;;;6.10;;
73487;SDS011;61721;42.206;25.320;2023-04-12T12:04:47;4.30;;;2.15;;
73487;SDS011;61721;42.206;25.320;2023-04-12T12:07:15;4.60;;;1.85;;
73487;SDS011;61721;42.206;25.320;2023-04-12T12:09:43;3.10;;;1.23;;
73487;SDS011;61721;42.206;25.320;2023-04-12T12:12:13;5.45;;;2.40;;
73487;SDS011;61721;42.206;25.320;2023-04-12T12:14:42;4.55;;;1.90;;
73487;SDS011;61721;42.206;25.320;2023-04-12T12:17:13;4.53;;;2.05;;
73487;SDS011;61721;42.206;25.320;2023-04-12T12:19:43;2.22;;;0.73;;
73487;SDS011;61721;42.206;25.320;2023-04-12T12:22:12;2.17;;;0.90;;
73487;SDS011;61721;42.206;25.320;2023-04-12T12:24:44;6.28;;;1.77;;
73487;SDS011;61721;42.206;25.320;2023-04-12T12:27:14;2.35;;;0.70;;
73487;SDS011;61721;42.206;25.320;2023-04-12T12:29:47;2.10;;;1.00;;
73487;SDS011;61721;42.206;25.320;2023-04-12T12:32:17;1.90;;;0.70;;
73487;SDS011;61721;42.206;25.320;2023-04-12T12:34:51;3.60;;;0.70;;
73487;SDS011;61721;42.206;25.320;2023-04-12T12:37:21;2.50;;;0.80;;
73487;SDS011;61721;42.206;25.320;2023-04-12T12:39:59;3.25;;;0.80;;
73487;SDS011;61721;42.206;25.320;2023-04-12T12:42:44;2.70;;;0.73;;
73487;SDS011;61721;42.206;25.320;2023-04-12T12:45:11;3.15;;;0.90;;
73487;SDS011;61721;42.206;25.320;2023-04-12T12:47:45;3.42;;;1.10;;
73487;SDS011;61721;42.206;25.320;2023-04-12T12:50:14;2.88;;;0.85;;
73487;SDS011;61721;42.206;25.320;2023-04-12T12:52:45;2.10;;;0.90;;
73487;SDS011;61721;42.206;25.320;2023-04-12T12:55:12;5.28;;;1.05;;
73487;SDS011;61721;42.206;25.320;2023-04-12T12:57:40;2.22;;;0.70;;
73487;SDS011;61721;42.206;25.320;2023-04-12T13:00:10;4.88;;;1.23;;
73487;SDS011;61721;42.206;25.320;2023-04-12T13:02:39;2.80;;;0.98;;
73487;SDS011;61721;42.206;25.320;2023-04-12T13:05:07;2.45;;;0.98;;
73487;SDS011;61721;42.206;25.320;2023-04-12T13:07:35;2.67;;;1.10;;
73487;SDS011;61721;42.206;25.320;2023-04-12T13:10:02;12.60;;;1.63;;
73487;SDS011;61721;42.206;25.320;2023-04-12T13:12:29;2.22;;;0.90;;
73487;SDS011;61721;42.206;25.320;2023-04-12T13:14:57;2.42;;;0.70;;
73487;SDS011;61721;42.206;25.320;2023-04-12T13:17:26;2.08;;;0.77;;
73487;SDS011;61721;42.206;25.320;2023-04-12T13:19:54;4.25;;;0.98;;
73487;SDS011;61721;42.206;25.320;2023-04-12T13:22:21;1.75;;;0.70;;
73487;SDS011;61721;42.206;25.320;2023-04-12T13:24:49;2.85;;;0.90;;
73487;SDS011;61721;42.206;25.320;2023-04-12T13:27:16;2.92;;;0.90;;
73487;SDS011;61721;42.206;25.320;2023-04-12T13:29:43;2.17;;;0.60;;
73487;SDS011;61721;42.206;25.320;2023-04-12T13:32:10;2.22;;;0.70;;
73487;SDS011;61721;42.206;25.320;2023-04-12T13:34:39;3.85;;;1.05;;
73487;SDS011;61721;42.206;25.320;2023-04-12T13:37:08;3.90;;;1.00;;
73487;SDS011;61721;42.206;25.320;2023-04-12T13:39:37;2.53;;;0.75;;
73487;SDS011;61721;42.206;25.320;2023-04-12T13:42:05;5.22;;;0.85;;
73487;SDS011;61721;42.206;25.320;2023-04-12T13:44:33;3.47;;;1.00;;
73487;SDS011;61721;42.206;25.320;2023-04-12T13:47:00;8.43;;;1.20;;
73487;SDS011;61721;42.206;25.320;2023-04-12T13:49:28;2.00;;;0.80;;
73487;SDS011;61721;42.206;25.320;2023-04-12T13:51:58;2.20;;;0.90;;
73487;SDS011;61721;42.206;25.320;2023-04-12T13:54:25;1.55;;;0.57;;
73487;SDS011;61721;42.206;25.320;2023-04-12T13:56:52;4.28;;;1.10;;
73487;SDS011;61721;42.206;25.320;2023-04-12T13:59:19;1.52;;;0.60;;
73487;SDS011;61721;42.206;25.320;2023-04-12T14:01:46;2.13;;;0.70;;
73487;SDS011;61721;42.206;25.320;2023-04-12T14:04:13;4.43;;;0.80;;
73487;SDS011;61721;42.206;25.320;2023-04-12T14:06:40;2.20;;;0.70;;
73487;SDS011;61721;42.206;25.320;2023-04-12T14:09:14;3.88;;;0.80;;
73487;SDS011;61721;42.206;25.320;2023-04-12T14:11:48;3.03;;;0.82;;
73487;SDS011;61721;42.206;25.320;2023-04-12T14:14:15;3.65;;;0.82;;
73487;SDS011;61721;42.206;25.320;2023-04-12T14:16:42;3.97;;;1.00;;
73487;SDS011;61721;42.206;25.320;2023-04-12T14:19:10;2.47;;;0.77;;
73487;SDS011;61721;42.206;25.320;2023-04-12T14:21:37;2.53;;;0.85;;
73487;SDS011;61721;42.206;25.320;2023-04-12T14:24:05;3.78;;;1.25;;
73487;SDS011;61721;42.206;25.320;2023-04-12T14:26:34;3.13;;;0.80;;
73487;SDS011;61721;42.206;25.320;2023-04-12T14:29:04;2.65;;;0.90;;
73487;SDS011;61721;42.206;25.320;2023-04-12T14:31:31;3.38;;;1.00;;
73487;SDS011;61721;42.206;25.320;2023-04-12T14:33:58;4.13;;;0.80;;
73487;SDS011;61721;42.206;25.320;2023-04-12T14:36:25;2.83;;;0.70;;
73487;SDS011;61721;42.206;25.320;2023-04-12T14:38:52;2.05;;;0.75;;
73487;SDS011;61721;42.206;25.320;2023-04-12T14:41:19;4.60;;;0.95;;
73487;SDS011;61721;42.206;25.320;2023-04-12T14:43:48;3.10;;;0.98;;
73487;SDS011;61721;42.206;25.320;2023-04-12T14:46:15;3.30;;;0.90;;
73487;SDS011;61721;42.206;25.320;2023-04-12T14:48:43;9.77;;;1.33;;
73487;SDS011;61721;42.206;25.320;2023-04-12T14:51:10;2.28;;;0.80;;
73487;SDS011;61721;42.206;25.320;2023-04-12T14:53:37;2.42;;;0.73;;
73487;SDS011;61721;42.206;25.320;2023-04-12T14:56:15;3.78;;;1.10;;
73487;SDS011;61721;42.206;25.320;2023-04-12T14:58:44;5.32;;;1.73;;
73487;SDS011;61721;42.206;25.320;2023-04-12T15:01:13;2.35;;;0.70;;
73487;SDS011;61721;42.206;25.320;2023-04-12T15:03:42;3.53;;;1.08;;
73487;SDS011;61721;42.206;25.320;2023-04-12T15:06:10;2.88;;;1.00;;
73487;SDS011;61721;42.206;25.320;2023-04-12T15:08:38;9.75;;;1.02;;